Terminal Aerodrome Forecast
Issued by NWS Austin/San Antonio, TX

Home | Current Version | Previous Version | Text Only | Print | Product List | Glossary On
Versions: 1 2 3 4 5 6 7 8 9 10 11 12 13 14 15 16 17 18 19
000
FTUS44 KEWX 311700
TAFDRT
TAF
KDRT 311720Z 3118/0118 13006KT 3SM -RA BR OVC007
     FM312100 13011KT 4SM BR OVC007
     FM010900 08004KT 1SM BR OVC004
     FM011600 31005KT 5SM BR OVC007=

USA.gov is the U.S. government's official web portal to all federal, state and local government web resources and services.